createdAt,value
2023-03-01T00:00:30.174Z,101708.11
2023-03-01T00:03:24.110Z,101703.19
2023-03-01T00:05:57.491Z,101697.73
2023-03-01T00:08:32.079Z,101694.95
2023-03-01T00:11:13.522Z,101694.55
2023-03-01T00:13:48.294Z,101689.81
2023-03-01T00:16:24.095Z,101689.55
2023-03-01T00:18:59.091Z,101690.68
2023-03-01T00:21:32.954Z,101688.96
2023-03-01T00:24:07.589Z,101689.56
2023-03-01T00:26:41.159Z,101687.05
2023-03-01T00:29:15.151Z,101682.83
2023-03-01T00:31:48.794Z,101677.94
2023-03-01T00:34:22.463Z,101676.53
2023-03-01T00:36:56.073Z,101672.40
2023-03-01T00:39:29.698Z,101673.38
2023-03-01T00:42:03.604Z,101670.56
2023-03-01T00:44:37.195Z,101677.21
2023-03-01T00:47:11.900Z,101678.02
2023-03-01T00:49:45.502Z,101674.37
2023-03-01T00:52:18.929Z,101670.59
2023-03-01T00:54:54.542Z,101665.16
2023-03-01T00:57:28.410Z,101664.13
2023-03-01T01:00:02.720Z,101664.23
2023-03-01T01:02:36.814Z,101666.83
2023-03-01T01:05:11.835Z,101668.88
2023-03-01T01:07:46.146Z,101663.55
2023-03-01T01:10:22.248Z,101659.67
2023-03-01T01:12:55.484Z,101657.11
2023-03-01T01:15:30.291Z,101650.30
2023-03-01T01:18:03.792Z,101644.02
2023-03-01T01:20:40.030Z,101636.59
2023-03-01T01:23:13.377Z,101639.35
2023-03-01T01:25:46.837Z,101640.37
2023-03-01T01:28:20.307Z,101636.52
2023-03-01T01:30:54.107Z,101633.95
2023-03-01T01:33:28.455Z,101630.41
2023-03-01T01:36:02.482Z,101626.38
2023-03-01T01:38:36.429Z,101627.26
2023-03-01T01:41:12.717Z,101631.30
2023-03-01T01:43:48.224Z,101627.55
2023-03-01T01:46:31.959Z,101625.06
2023-03-01T01:49:09.977Z,101625.77
2023-03-01T01:51:49.236Z,101626.05
2023-03-01T01:54:27.878Z,101623.27
2023-03-01T01:57:06.613Z,101619.86
2023-03-01T01:59:41.784Z,101608.80
2023-03-01T02:02:16.359Z,101611.98
2023-03-01T02:04:52.554Z,101617.58
2023-03-01T02:07:28.738Z,101611.69
2023-03-01T02:10:03.300Z,101610.20
2023-03-01T02:12:38.720Z,101611.53
2023-03-01T02:15:13.630Z,101609.67
2023-03-01T02:17:47.767Z,101611.17
2023-03-01T02:20:26.519Z,101607.34
2023-03-01T02:23:00.771Z,101608.90
2023-03-01T02:25:43.538Z,101611.48
2023-03-01T02:28:32.550Z,101608.94
2023-03-01T02:31:26.705Z,101606.15
2023-03-01T02:34:01.470Z,101603.56
2023-03-01T02:36:41.506Z,101601.86
2023-03-01T02:39:20.891Z,101599.09
2023-03-01T02:41:59.285Z,101592.77
2023-03-01T02:44:32.935Z,101591.78
2023-03-01T02:47:07.382Z,101593.16
2023-03-01T02:49:41.485Z,101592.56
2023-03-01T02:52:31.446Z,101591.45
2023-03-01T02:55:09.151Z,101587.26
2023-03-01T02:57:45.583Z,101584.55
2023-03-01T03:00:22.933Z,101587.59
2023-03-01T03:02:58.458Z,101594.36
2023-03-01T03:05:34.013Z,101594.42
2023-03-01T03:08:09.034Z,101580.30
2023-03-01T03:10:45.564Z,101570.55
2023-03-01T03:13:20.428Z,101568.14
2023-03-01T03:15:54.100Z,101566.73
2023-03-01T03:18:28.524Z,101564.30
2023-03-01T03:21:02.237Z,101563.43
2023-03-01T03:23:36.784Z,101557.13
2023-03-01T03:26:10.659Z,101558.02
2023-03-01T03:28:48.185Z,101554.82
2023-03-01T03:31:21.931Z,101547.26
2023-03-01T03:33:58.197Z,101545.27
2023-03-01T03:36:32.581Z,101545.73
2023-03-01T03:39:07.031Z,101537.81
2023-03-01T03:41:41.026Z,101534.63
2023-03-01T03:44:14.560Z,101537.61
2023-03-01T03:46:48.388Z,101537.55
2023-03-01T03:49:22.191Z,101543.75
2023-03-01T03:51:55.831Z,101552.32
2023-03-01T03:54:29.874Z,101551.11
2023-03-01T03:57:03.517Z,101542.90
2023-03-01T03:59:37.071Z,101536.09
2023-03-01T04:02:11.427Z,101528.41
2023-03-01T04:04:44.945Z,101525.16
2023-03-01T04:07:18.690Z,101528.79
2023-03-01T04:09:52.644Z,101526.67
2023-03-01T04:12:26.391Z,101522.23
2023-03-01T04:15:00.161Z,101520.52
2023-03-01T04:17:33.768Z,101522.48
2023-03-01T04:20:08.422Z,101522.05
2023-03-01T04:22:43.215Z,101528.98
2023-03-01T04:25:17.163Z,101529.42
2023-03-01T04:27:51.004Z,101528.30
2023-03-01T04:30:26.708Z,101529.55
2023-03-01T04:33:00.491Z,101524.17
2023-03-01T04:35:34.268Z,101527.05
2023-03-01T04:38:08.163Z,101527.48
2023-03-01T04:40:43.816Z,101521.05
2023-03-01T04:43:17.842Z,101518.34
2023-03-01T04:45:51.165Z,101510.65
2023-03-01T04:48:24.994Z,101509.95
2023-03-01T04:50:58.472Z,101507.64
2023-03-01T04:53:32.673Z,101505.27
2023-03-01T04:56:06.898Z,101504.38
2023-03-01T04:58:40.683Z,101500.81
2023-03-01T05:01:17.976Z,101501.25
2023-03-01T05:03:53.718Z,101494.48
2023-03-01T05:06:27.516Z,101486.38
2023-03-01T05:09:01.306Z,101488.40
2023-03-01T05:11:37.226Z,101488.93
2023-03-01T05:14:12.490Z,101493.15
2023-03-01T05:16:46.278Z,101498.14
2023-03-01T05:19:24.240Z,101498.45
2023-03-01T05:22:07.246Z,101501.62
2023-03-01T05:24:41.209Z,101501.06
2023-03-01T05:27:15.640Z,101502.34
2023-03-01T05:29:49.752Z,101504.67
2023-03-01T05:32:23.552Z,101512.77
2023-03-01T05:34:56.953Z,101522.64
2023-03-01T05:37:30.997Z,101528.58
2023-03-01T05:40:06.610Z,101535.20
2023-03-01T05:42:39.963Z,101532.02
2023-03-01T05:45:15.360Z,101534.12
2023-03-01T05:47:50.002Z,101539.23
2023-03-01T05:50:26.532Z,101542.08
2023-03-01T05:53:05.755Z,101541.55
2023-03-01T05:55:40.116Z,101537.55
2023-03-01T05:58:16.629Z,101542.44
2023-03-01T06:00:52.921Z,101538.37
2023-03-01T06:03:28.513Z,101537.84
2023-03-01T06:06:03.600Z,101537.08
2023-03-01T06:08:37.253Z,101536.48
2023-03-01T06:11:10.876Z,101536.39
2023-03-01T06:13:45.883Z,101536.11
2023-03-01T06:16:19.463Z,101530.10
2023-03-01T06:18:53.198Z,101528.38
2023-03-01T06:21:26.732Z,101528.60
2023-03-01T06:24:00.302Z,101526.65
2023-03-01T06:26:34.372Z,101522.84
2023-03-01T06:29:08.826Z,101517.66
2023-03-01T06:31:42.394Z,101517.15
2023-03-01T06:34:15.965Z,101520.73
2023-03-01T06:36:49.363Z,101523.03
2023-03-01T06:39:23.295Z,101522.21
2023-03-01T06:41:57.807Z,101523.73
2023-03-01T06:44:32.485Z,101523.59
2023-03-01T06:47:06.265Z,101520.81
2023-03-01T06:49:39.625Z,101523.77
2023-03-01T06:52:13.374Z,101527.04
2023-03-01T06:54:46.995Z,101521.21
2023-03-01T06:57:20.622Z,101521.73
2023-03-01T06:59:54.431Z,101521.67
2023-03-01T07:02:28.288Z,101519.41
2023-03-01T07:05:02.076Z,101519.77
2023-03-01T07:07:35.740Z,101520.58
2023-03-01T07:10:12.204Z,101520.92
2023-03-01T07:12:45.954Z,101526.98
2023-03-01T07:15:19.785Z,101528.89
2023-03-01T07:17:53.952Z,101529.34
2023-03-01T07:20:27.925Z,101527.70
2023-03-01T07:23:02.183Z,101521.40
2023-03-01T07:25:36.338Z,101510.73
2023-03-01T07:28:10.128Z,101503.58
2023-03-01T07:30:43.887Z,101497.42
2023-03-01T07:33:17.953Z,101493.56
2023-03-01T07:35:58.521Z,101488.00
2023-03-01T07:38:33.217Z,101478.33
2023-03-01T07:41:08.165Z,101469.38
2023-03-01T07:43:42.575Z,101467.48
2023-03-01T07:46:16.540Z,101466.31
2023-03-01T07:48:50.536Z,101470.80
2023-03-01T07:51:24.125Z,101482.63
2023-03-01T07:53:57.725Z,101487.25
2023-03-01T07:56:31.652Z,101488.72
2023-03-01T07:59:05.634Z,101485.64
2023-03-01T08:01:39.483Z,101484.03
2023-03-01T08:04:13.803Z,101483.02
2023-03-01T08:06:47.833Z,101480.90
2023-03-01T08:09:21.475Z,101480.14
2023-03-01T08:11:55.825Z,101468.60
2023-03-01T08:14:29.396Z,101465.86
2023-03-01T08:17:04.305Z,101464.59
2023-03-01T08:19:38.072Z,101467.55
2023-03-01T08:22:12.217Z,101471.79
2023-03-01T08:24:45.826Z,101475.73
2023-03-01T08:27:20.158Z,101475.05
2023-03-01T08:29:54.059Z,101471.66
2023-03-01T08:32:27.965Z,101469.65
2023-03-01T08:35:02.042Z,101472.45
2023-03-01T08:37:36.079Z,101472.08
2023-03-01T08:40:12.726Z,101474.95
2023-03-01T08:42:46.471Z,101472.39
2023-03-01T08:45:20.756Z,101470.68
2023-03-01T08:47:56.650Z,101470.42
2023-03-01T08:50:29.826Z,101470.72
2023-03-01T08:53:03.215Z,101473.79
2023-03-01T08:55:36.736Z,101480.42
2023-03-01T08:58:10.337Z,101478.80
2023-03-01T09:00:44.394Z,101477.83
2023-03-01T09:03:17.991Z,101479.78
2023-03-01T09:05:51.770Z,101478.09
2023-03-01T09:08:25.574Z,101475.86
2023-03-01T09:10:59.427Z,101476.54
2023-03-01T09:13:34.068Z,101476.90
2023-03-01T09:16:10.275Z,101476.48
2023-03-01T09:18:43.844Z,101478.80
2023-03-01T09:21:24.895Z,101479.59
2023-03-01T09:24:04.232Z,101481.06
2023-03-01T09:26:38.188Z,101475.30
2023-03-01T09:29:12.116Z,101473.05
2023-03-01T09:31:46.196Z,101468.61
2023-03-01T09:34:24.837Z,101465.29
2023-03-01T09:36:56.679Z,101463.28
2023-03-01T09:39:30.388Z,101467.12
2023-03-01T09:42:07.924Z,101469.73
2023-03-01T09:44:46.823Z,101466.36
2023-03-01T09:47:24.135Z,101461.05
2023-03-01T09:50:04.786Z,101460.39
2023-03-01T09:52:44.483Z,101456.27
2023-03-01T09:55:20.533Z,101449.95
2023-03-01T09:57:58.639Z,101451.38
2023-03-01T10:00:44.917Z,101450.16
2023-03-01T10:03:26.745Z,101446.27
2023-03-01T10:06:07.627Z,101442.88
2023-03-01T10:08:44.847Z,101444.94
2023-03-01T10:11:27.045Z,101437.63
2023-03-01T10:14:05.900Z,101433.98
2023-03-01T10:16:46.927Z,101429.84
2023-03-01T10:19:30.322Z,101421.78
2023-03-01T10:22:14.238Z,101417.09
2023-03-01T10:24:49.121Z,101415.36
2023-03-01T10:27:27.235Z,101410.30
2023-03-01T10:30:13.846Z,101404.98
2023-03-01T10:32:49.878Z,101399.27
2023-03-01T10:35:27.390Z,101400.69
2023-03-01T10:38:08.473Z,101398.95
2023-03-01T10:40:59.635Z,101399.66
2023-03-01T10:43:45.980Z,101399.13
2023-03-01T10:46:30.579Z,101394.74
2023-03-01T10:49:19.909Z,101387.98
2023-03-01T10:51:55.745Z,101386.17
2023-03-01T10:54:32.039Z,101380.59
2023-03-01T10:57:08.590Z,101374.47
2023-03-01T10:59:43.901Z,101372.14
2023-03-01T11:02:27.408Z,101372.38
2023-03-01T11:05:53.940Z,101372.98
2023-03-01T11:08:49.207Z,101368.33
2023-03-01T11:11:32.781Z,101371.91
2023-03-01T11:14:26.864Z,101369.20
2023-03-01T11:17:06.727Z,101369.06
2023-03-01T11:19:39.960Z,101370.17
2023-03-01T11:22:19.621Z,101365.66
2023-03-01T11:25:08.933Z,101356.08
2023-03-01T11:27:47.027Z,101353.58
2023-03-01T11:30:26.932Z,101355.08
2023-03-01T11:33:19.994Z,101351.23
2023-03-01T11:36:01.102Z,101353.06
2023-03-01T11:38:38.434Z,101349.02
2023-03-01T11:41:17.798Z,101346.70
2023-03-01T11:44:00.162Z,101344.79
2023-03-01T11:47:07.370Z,101344.38
2023-03-01T11:50:02.991Z,101351.30
2023-03-01T11:52:51.478Z,101352.02
2023-03-01T11:56:01.944Z,101353.45
2023-03-01T11:58:56.914Z,101347.19
2023-03-01T12:01:42.464Z,101345.53
2023-03-01T12:04:59.818Z,101348.44
2023-03-01T12:07:37.980Z,101349.98
2023-03-01T12:10:26.286Z,101349.88
2023-03-01T12:13:15.388Z,101349.61
2023-03-01T12:16:06.274Z,101351.73
2023-03-01T12:19:03.136Z,101354.10
2023-03-01T12:21:51.698Z,101350.70
2023-03-01T12:24:46.601Z,101348.81
2023-03-01T12:27:35.088Z,101352.23
2023-03-01T12:30:28.089Z,101348.95
2023-03-01T12:33:16.365Z,101342.46
2023-03-01T12:36:12.298Z,101335.48
2023-03-01T12:38:52.016Z,101330.23
2023-03-01T12:41:46.411Z,101330.58
2023-03-01T12:44:36.210Z,101326.30
2023-03-01T12:47:22.035Z,101325.45
2023-03-01T12:49:58.692Z,101323.02
2023-03-01T12:52:40.902Z,101320.48
2023-03-01T12:55:27.947Z,101315.48
2023-03-01T12:58:11.005Z,101310.70
2023-03-01T13:00:58.006Z,101307.94
2023-03-01T13:03:41.866Z,101305.98
2023-03-01T13:06:27.506Z,101311.77
2023-03-01T13:09:09.174Z,101309.02
2023-03-01T13:11:45.989Z,101311.24
2023-03-01T13:14:47.328Z,101311.92
2023-03-01T13:17:44.665Z,101312.23
2023-03-01T13:20:21.559Z,101311.95
2023-03-01T13:23:09.686Z,101308.88
2023-03-01T13:26:16.798Z,101300.30
2023-03-01T13:29:01.772Z,101302.84
2023-03-01T13:32:06.009Z,101297.94
2023-03-01T13:34:47.805Z,101295.04
2023-03-01T13:37:31.036Z,101292.25
2023-03-01T13:40:31.017Z,101292.45
2023-03-01T13:43:30.604Z,101296.06
2023-03-01T13:46:10.316Z,101294.48
2023-03-01T13:48:46.513Z,101296.15
2023-03-01T13:51:26.419Z,101293.23
2023-03-01T13:54:01.642Z,101295.79
2023-03-01T13:56:41.242Z,101291.83
2023-03-01T13:59:21.006Z,101288.64
2023-03-01T14:02:00.846Z,101288.33
2023-03-01T14:04:37.470Z,101288.20
2023-03-01T14:07:21.329Z,101286.80
2023-03-01T14:09:58.221Z,101285.08
2023-03-01T14:12:48.205Z,101282.27
2023-03-01T14:15:28.480Z,101281.35
2023-03-01T14:18:07.224Z,101280.07
2023-03-01T14:20:46.805Z,101277.87
2023-03-01T14:23:23.471Z,101273.48
2023-03-01T14:26:00.299Z,101276.13
2023-03-01T14:28:35.765Z,101273.77
2023-03-01T14:31:51.777Z,101272.73
2023-03-01T14:34:27.791Z,101271.01
2023-03-01T14:37:12.542Z,101270.13
2023-03-01T14:39:46.397Z,101267.78
2023-03-01T14:42:21.470Z,101263.38
2023-03-01T14:44:57.604Z,101262.81
2023-03-01T14:47:34.863Z,101261.50
2023-03-01T14:50:18.633Z,101265.14
2023-03-01T14:52:57.411Z,101267.77
2023-03-01T14:55:36.555Z,101260.05
2023-03-01T14:58:14.472Z,101253.90
2023-03-01T15:00:55.341Z,101252.59
2023-03-01T15:03:41.266Z,101249.58
2023-03-01T15:06:18.535Z,101250.98
2023-03-01T15:08:55.600Z,101244.52
2023-03-01T15:11:33.198Z,101240.64
2023-03-01T15:14:45.698Z,101241.45
2023-03-01T15:17:33.531Z,101241.88
2023-03-01T15:20:19.342Z,101243.96
2023-03-01T15:22:53.827Z,101246.39
2023-03-01T15:25:30.965Z,101251.61
2023-03-01T15:28:06.384Z,101250.61
2023-03-01T15:30:41.797Z,101249.30
2023-03-01T15:33:40.695Z,101246.34
2023-03-01T15:36:36.471Z,101244.13
2023-03-01T15:39:24.449Z,101235.82
2023-03-01T15:41:59.302Z,101234.40
2023-03-01T15:44:43.387Z,101233.24
2023-03-01T15:47:33.271Z,101235.20
2023-03-01T15:50:07.754Z,101236.59
2023-03-01T15:52:46.001Z,101230.55
2023-03-01T15:55:23.884Z,101231.97
2023-03-01T15:58:07.882Z,101237.90
2023-03-01T16:00:48.818Z,101235.05
2023-03-01T16:03:34.077Z,101237.57
2023-03-01T16:06:09.152Z,101237.61
2023-03-01T16:08:44.390Z,101237.53
2023-03-01T16:11:22.093Z,101237.65
2023-03-01T16:13:56.288Z,101235.40
2023-03-01T16:16:31.665Z,101238.40
2023-03-01T16:19:06.076Z,101237.61
2023-03-01T16:21:41.458Z,101235.34
2023-03-01T16:24:15.046Z,101232.63
2023-03-01T16:26:50.634Z,101230.66
2023-03-01T16:29:25.504Z,101234.20
2023-03-01T16:32:02.904Z,101234.86
2023-03-01T16:34:37.328Z,101239.05
2023-03-01T16:37:11.020Z,101239.29
2023-03-01T16:39:45.251Z,101239.21
2023-03-01T16:42:20.766Z,101238.41
2023-03-01T16:44:59.072Z,101241.55
2023-03-01T16:47:34.470Z,101241.93
2023-03-01T16:50:10.052Z,101244.06
2023-03-01T16:52:45.365Z,101246.30
2023-03-01T16:55:19.339Z,101245.13
2023-03-01T16:57:54.015Z,101244.08
2023-03-01T17:00:29.885Z,101239.48
2023-03-01T17:03:05.240Z,101242.77
2023-03-01T17:05:42.908Z,101242.38
2023-03-01T17:08:19.209Z,101242.14
2023-03-01T17:10:53.641Z,101242.48
2023-03-01T17:13:29.333Z,101242.11
2023-03-01T17:16:06.036Z,101242.90
2023-03-01T17:18:40.589Z,101242.31
2023-03-01T17:21:16.802Z,101249.17
2023-03-01T17:23:53.392Z,101254.48
2023-03-01T17:26:29.956Z,101256.96
2023-03-01T17:29:05.579Z,101256.90
2023-03-01T17:31:42.033Z,101259.95
2023-03-01T17:34:17.882Z,101262.13
2023-03-01T17:36:56.239Z,101268.34
2023-03-01T17:39:36.964Z,101271.54
2023-03-01T17:42:12.675Z,101267.16
2023-03-01T17:44:46.985Z,101265.38
2023-03-01T17:47:22.069Z,101263.89
2023-03-01T17:49:58.629Z,101264.59
2023-03-01T17:52:34.866Z,101260.94
2023-03-01T17:55:12.976Z,101261.50
2023-03-01T17:57:48.013Z,101262.02
2023-03-01T18:00:31.798Z,101260.48
2023-03-01T18:03:08.845Z,101257.73
2023-03-01T18:05:44.704Z,101256.09
2023-03-01T18:08:19.080Z,101255.39
2023-03-01T18:11:00.684Z,101256.00
2023-03-01T18:13:36.767Z,101250.98
2023-03-01T18:16:17.225Z,101245.19
2023-03-01T18:18:55.049Z,101239.92
2023-03-01T18:21:31.670Z,101239.40
2023-03-01T18:24:07.581Z,101238.45
2023-03-01T18:26:45.355Z,101237.00
2023-03-01T18:29:21.375Z,101233.84
2023-03-01T18:31:57.043Z,101235.14
2023-03-01T18:34:33.972Z,101244.28
2023-03-01T18:37:10.624Z,101239.90
2023-03-01T18:39:49.265Z,101233.33
2023-03-01T18:42:27.909Z,101229.63
2023-03-01T18:45:07.309Z,101232.50
2023-03-01T18:47:44.483Z,101233.65
2023-03-01T18:50:24.576Z,101232.05
2023-03-01T18:53:04.524Z,101232.48
2023-03-01T18:55:42.106Z,101233.09
2023-03-01T18:58:17.589Z,101234.50
2023-03-01T19:00:59.031Z,101234.89
2023-03-01T19:03:36.514Z,101238.27
2023-03-01T19:06:13.207Z,101236.73
2023-03-01T19:08:50.565Z,101239.79
2023-03-01T19:11:32.074Z,101237.85
2023-03-01T19:14:09.702Z,101236.04
2023-03-01T19:16:46.000Z,101242.77
2023-03-01T19:19:23.852Z,101248.92
2023-03-01T19:22:05.909Z,101255.47
2023-03-01T19:24:43.109Z,101259.73
2023-03-01T19:27:21.134Z,101268.33
2023-03-01T19:29:56.876Z,101270.73
2023-03-01T19:32:35.169Z,101273.02
2023-03-01T19:35:13.046Z,101274.18
2023-03-01T19:37:49.118Z,101273.80
2023-03-01T19:40:27.029Z,101273.70
2023-03-01T19:43:05.514Z,101271.10
2023-03-01T19:45:41.523Z,101273.13
2023-03-01T19:48:18.311Z,101274.60
2023-03-01T19:50:56.794Z,101274.25
2023-03-01T19:53:34.107Z,101270.98
2023-03-01T19:56:12.905Z,101274.04
2023-03-01T19:58:51.553Z,101275.95
2023-03-01T20:01:33.431Z,101274.66
2023-03-01T20:04:11.655Z,101275.89
2023-03-01T20:06:50.151Z,101274.16
2023-03-01T20:09:27.747Z,101279.11
2023-03-01T20:12:07.662Z,101281.39
2023-03-01T20:14:43.938Z,101280.17
2023-03-01T20:17:31.225Z,101284.96
2023-03-01T20:20:08.865Z,101286.59
2023-03-01T20:22:53.912Z,101287.51
2023-03-01T20:25:35.751Z,101283.17
2023-03-01T20:28:12.237Z,101285.31
2023-03-01T20:30:53.709Z,101286.86
2023-03-01T20:33:31.108Z,101286.13
2023-03-01T20:36:09.284Z,101290.99
2023-03-01T20:38:48.078Z,101282.67
2023-03-01T20:41:22.717Z,101281.87
2023-03-01T20:44:02.146Z,101283.09
2023-03-01T20:46:39.303Z,101281.80
2023-03-01T20:49:16.335Z,101282.15
2023-03-01T20:51:52.644Z,101286.38
2023-03-01T20:54:30.997Z,101284.41
2023-03-01T20:57:04.269Z,101287.11
2023-03-01T20:59:40.659Z,101283.17
2023-03-01T21:02:17.574Z,101282.28
2023-03-01T21:04:52.199Z,101279.43
2023-03-01T21:07:32.208Z,101278.98
2023-03-01T21:10:11.902Z,101279.16
2023-03-01T21:12:47.589Z,101280.08
2023-03-01T21:15:29.055Z,101284.78
2023-03-01T21:18:04.384Z,101284.88
2023-03-01T21:20:43.727Z,101285.37
2023-03-01T21:23:19.792Z,101286.02
2023-03-01T21:26:04.059Z,101283.59
2023-03-01T21:28:38.334Z,101278.61
2023-03-01T21:31:15.140Z,101276.65
2023-03-01T21:33:53.038Z,101273.53
2023-03-01T21:36:31.025Z,101274.86
2023-03-01T21:39:07.245Z,101278.58
2023-03-01T21:41:41.297Z,101273.81
2023-03-01T21:44:15.257Z,101275.21
2023-03-01T21:46:50.198Z,101271.56
2023-03-01T21:49:23.942Z,101270.40
2023-03-01T21:51:57.358Z,101271.52
2023-03-01T21:54:31.708Z,101270.30
2023-03-01T21:57:05.931Z,101268.80
2023-03-01T21:59:40.055Z,101269.95
2023-03-01T22:02:16.106Z,101271.71
2023-03-01T22:04:49.927Z,101275.64
2023-03-01T22:07:23.681Z,101275.88
2023-03-01T22:09:58.234Z,101273.31
2023-03-01T22:12:31.762Z,101273.80
2023-03-01T22:15:06.018Z,101272.77
2023-03-01T22:17:39.535Z,101269.65
2023-03-01T22:20:15.062Z,101267.38
2023-03-01T22:22:48.851Z,101261.65
2023-03-01T22:25:22.845Z,101260.72
2023-03-01T22:27:56.364Z,101256.79
2023-03-01T22:30:30.110Z,101254.50
2023-03-01T22:33:03.574Z,101258.91
2023-03-01T22:35:37.339Z,101257.35
2023-03-01T22:38:11.210Z,101255.83
2023-03-01T22:40:44.967Z,101254.01
2023-03-01T22:43:18.684Z,101252.94
2023-03-01T22:45:52.495Z,101249.95
2023-03-01T22:48:26.904Z,101250.27
2023-03-01T22:51:00.841Z,101254.30
2023-03-01T22:53:34.769Z,101256.63
2023-03-01T22:56:17.944Z,101257.93
2023-03-01T22:58:52.647Z,101255.52
2023-03-01T23:01:27.578Z,101256.18
2023-03-01T23:04:01.586Z,101257.66
2023-03-01T23:06:35.839Z,101259.67
2023-03-01T23:09:09.277Z,101257.83
2023-03-01T23:11:43.489Z,101260.42
2023-03-01T23:14:17.453Z,101260.53
2023-03-01T23:16:51.922Z,101265.63
2023-03-01T23:19:26.088Z,101269.96
2023-03-01T23:21:59.716Z,101270.55
2023-03-01T23:24:34.118Z,101272.57
2023-03-01T23:27:07.898Z,101271.14
2023-03-01T23:29:41.561Z,101260.86
2023-03-01T23:32:16.168Z,101259.07
2023-03-01T23:34:50.399Z,101258.41
2023-03-01T23:37:24.102Z,101256.66
2023-03-01T23:39:57.993Z,101256.13
2023-03-01T23:42:31.469Z,101260.68
2023-03-01T23:45:09.476Z,101258.46
2023-03-01T23:47:44.672Z,101257.48
2023-03-01T23:50:18.696Z,101257.68
2023-03-01T23:52:52.625Z,101263.11
2023-03-01T23:55:27.688Z,101264.35
2023-03-01T23:58:01.132Z,101260.86
